SLCO2: Lee Creek At Short, OK

                                SHEF ID:       SLCO2     Lee Creek near Short, OK
STATION TYPE: Stream Gauge

PRECIP STAGE RIV-FLOW BAT-LOAD
in ft cfs volt
Ccp-Rev Ccp-Rev Ccp-Rev Ccp-Rev
(America/Chicago)
06/16 00:00 0.00 4.66 837 12.65
06/16 01:00 0.00 4.63 820 12.65
06/16 02:00 0.00 4.60 803 12.65
06/16 03:00 0.00 4.57 786 12.57
06/16 04:00 0.00 4.53 764 12.57
06/16 05:00 0.00 4.50 748 12.57
06/16 06:00 0.00 4.47 732 12.57
06/16 07:00 0.00 4.44 716 12.57
06/16 08:00 0.00 4.41 700 12.57
06/16 09:00 0.00 4.38 685 12.65
06/16 10:00 0.00 4.36 674 12.65
06/16 11:00 0.00 4.33 659 12.73
06/16 12:00 0.00 4.31 649 12.73
06/16 13:00 0.00 4.28 635 13.05
06/16 14:00 0.00 4.26 625 13.29
06/16 15:00 0.00 4.23 611 13.13
06/16 16:00 0.00 4.21 601 13.05
06/16 17:00 0.00 4.19 592 12.97
06/16 18:00 0.00 4.16 578 12.89
06/16 19:00 0.00 4.14 569 12.81
06/16 20:00 0.00 4.11 556 12.81
06/16 21:00 0.00 4.08 543 12.81
06/16 22:00 0.00 4.05 530 12.73
06/16 23:00 0.00 4.03 521 12.73
Data processed at Tue 17Jun2025 04:41 GMT

Parsing this webpage?

Checkout our new Data API! CWMSDataAPI (CDA)

Timeseries IDs (TSIDs)

TSIDs used from left to right in the data table
SHOR.Precip-Inc.Total.1Hour.1Hour.Ccp-Rev
SHOR.Stage.Inst.1Hour.0.Ccp-Rev
SHOR.Flow.Inst.1Hour.0.Ccp-Rev
SHOR.Volt-Battery Load.Inst.1Hour.0.Ccp-Rev

                            

All information presented herein is the property of the government of the United States of America and may be revised or deleted at any time without prior notice. Dissemination of this information without the expressed written consent of the Public Affairs Office, Tulsa District U.S. Army Corps of Engineers is strictly prohibited. These data are gathered electronically and, as presented, have NOT undergone any form of quality control. These data are NOT guaranteed to be valid or correct.